createdAt,value
2018-08-18T00:00:17.068Z,21.35
2018-08-18T00:02:46.145Z,21.26
2018-08-18T00:05:15.802Z,21.19
2018-08-18T00:07:44.922Z,21.18
2018-08-18T00:10:16.645Z,21.17
2018-08-18T00:12:45.716Z,21.13
2018-08-18T00:15:15.341Z,21.05
2018-08-18T00:17:44.407Z,21.16
2018-08-18T00:20:15.491Z,21.15
2018-08-18T00:22:44.766Z,21.13
2018-08-18T00:25:14.016Z,21.17
2018-08-18T00:27:43.094Z,21.06
2018-08-18T00:30:17.482Z,21.08
2018-08-18T00:32:46.542Z,20.79
2018-08-18T00:35:16.348Z,20.93
2018-08-18T00:37:45.507Z,21.03
2018-08-18T00:40:14.710Z,21.10
2018-08-18T00:42:43.800Z,21.00
2018-08-18T00:45:13.677Z,21.08
2018-08-18T00:47:42.769Z,21.08
2018-08-18T00:50:15.996Z,21.10
2018-08-18T00:52:45.823Z,21.12
2018-08-18T00:55:14.943Z,21.05
2018-08-18T00:57:43.993Z,20.84
2018-08-18T01:00:13.167Z,20.82
2018-08-18T01:02:42.294Z,20.89
2018-08-18T01:05:11.679Z,21.02
2018-08-18T01:07:40.843Z,21.00
2018-08-18T01:10:09.950Z,20.94
2018-08-18T01:12:39.032Z,21.01
2018-08-18T01:15:08.630Z,20.98
2018-08-18T01:17:37.775Z,20.99
2018-08-18T01:20:07.175Z,20.99
2018-08-18T01:22:36.203Z,21.02
2018-08-18T01:25:06.277Z,21.02
2018-08-18T01:27:46.615Z,21.10
2018-08-18T01:30:16.657Z,21.10
2018-08-18T01:32:45.728Z,20.89
2018-08-18T01:35:14.818Z,20.84
2018-08-18T01:37:43.874Z,20.85
2018-08-18T01:40:12.925Z,21.00
2018-08-18T01:42:41.966Z,21.03
2018-08-18T01:45:11.045Z,20.98
2018-08-18T01:47:40.141Z,20.86
2018-08-18T01:50:25.677Z,20.85
2018-08-18T01:52:54.756Z,20.78
2018-08-18T01:55:23.900Z,20.70
2018-08-18T01:57:52.978Z,20.65
2018-08-18T02:00:24.817Z,20.67
2018-08-18T02:02:53.930Z,20.58
2018-08-18T02:05:23.649Z,20.63
2018-08-18T02:07:52.718Z,20.74
2018-08-18T02:10:21.796Z,20.80
2018-08-18T02:13:02.828Z,20.77
2018-08-18T02:15:32.201Z,20.60
2018-08-18T02:18:01.307Z,20.59
2018-08-18T02:20:30.369Z,20.48
2018-08-18T02:22:59.430Z,20.44
2018-08-18T02:25:28.582Z,20.50
2018-08-18T02:27:57.672Z,20.52
2018-08-18T02:30:26.750Z,20.52
2018-08-18T02:32:55.852Z,20.50
2018-08-18T02:35:24.928Z,20.51
2018-08-18T02:37:54.030Z,20.61
2018-08-18T02:40:23.107Z,20.61
2018-08-18T02:42:52.191Z,20.51
2018-08-18T02:45:21.289Z,20.45
2018-08-18T02:48:04.722Z,20.58
2018-08-18T02:50:33.812Z,20.47
2018-08-18T02:53:11.801Z,20.31
2018-08-18T02:55:40.900Z,20.19
2018-08-18T02:58:09.926Z,19.68
2018-08-18T03:00:38.990Z,20.18
2018-08-18T03:03:08.190Z,20.11
2018-08-18T03:05:37.307Z,20.14
2018-08-18T03:08:06.393Z,19.99
2018-08-18T03:10:35.535Z,19.68
2018-08-18T03:13:04.598Z,19.79
2018-08-18T03:16:06.458Z,19.78
2018-08-18T03:18:43.200Z,19.77
2018-08-18T03:21:12.320Z,19.89
2018-08-18T03:23:52.660Z,19.93
2018-08-18T03:26:26.540Z,19.85
2018-08-18T03:28:55.632Z,19.89
2018-08-18T03:31:24.696Z,19.82
2018-08-18T03:33:53.775Z,19.83
2018-08-18T03:36:28.589Z,19.82
2018-08-18T03:38:58.038Z,19.76
2018-08-18T03:41:27.843Z,19.70
2018-08-18T03:43:57.373Z,19.76
2018-08-18T03:46:26.449Z,19.75
2018-08-18T03:48:55.588Z,19.77
2018-08-18T03:51:30.226Z,19.89
2018-08-18T03:53:59.761Z,19.80
2018-08-18T03:56:28.790Z,19.74
2018-08-18T03:58:58.669Z,19.57
2018-08-18T04:01:40.607Z,19.51
2018-08-18T04:04:10.897Z,19.61
2018-08-18T04:06:41.121Z,19.55
2018-08-18T04:09:13.528Z,19.28
2018-08-18T04:11:42.575Z,19.17
2018-08-18T04:14:11.689Z,19.49
2018-08-18T04:16:50.956Z,19.68
2018-08-18T04:19:21.024Z,19.50
2018-08-18T04:21:52.054Z,19.51
2018-08-18T04:24:21.178Z,19.64
2018-08-18T04:26:51.277Z,19.46
2018-08-18T04:29:22.038Z,19.34
2018-08-18T04:31:51.135Z,19.35
2018-08-18T04:34:20.257Z,19.29
2018-08-18T04:36:49.387Z,19.30
2018-08-18T04:39:18.438Z,19.21
2018-08-18T04:41:47.528Z,19.20
2018-08-18T04:44:16.669Z,19.14
2018-08-18T04:46:45.725Z,19.08
2018-08-18T04:49:15.485Z,19.07
2018-08-18T04:51:44.687Z,19.11
2018-08-18T04:54:13.856Z,19.16
2018-08-18T04:56:42.987Z,19.17
2018-08-18T04:59:12.031Z,19.18
2018-08-18T05:01:41.613Z,19.27
2018-08-18T05:04:12.739Z,19.24
2018-08-18T05:06:43.196Z,19.18
2018-08-18T05:09:13.766Z,19.28
2018-08-18T05:11:42.890Z,19.32
2018-08-18T05:14:11.966Z,19.22
2018-08-18T05:16:41.061Z,19.32
2018-08-18T05:19:10.174Z,19.36
2018-08-18T05:21:39.201Z,19.44
2018-08-18T05:24:21.162Z,19.54
2018-08-18T05:26:50.658Z,19.56
2018-08-18T05:29:19.754Z,19.54
2018-08-18T05:31:48.881Z,19.40
2018-08-18T05:34:17.952Z,19.56
2018-08-18T05:36:47.077Z,19.48
2018-08-18T05:39:16.200Z,19.45
2018-08-18T05:41:45.289Z,19.52
2018-08-18T05:44:14.341Z,19.61
2018-08-18T05:46:43.743Z,19.74
2018-08-18T05:49:15.880Z,19.66
2018-08-18T05:51:47.687Z,19.82
2018-08-18T05:54:22.300Z,19.94
2018-08-18T05:56:51.416Z,19.98
2018-08-18T05:59:20.518Z,19.84
2018-08-18T06:01:49.606Z,19.73
2018-08-18T06:04:20.281Z,19.57
2018-08-18T06:06:49.930Z,19.55
2018-08-18T06:09:20.212Z,19.49
2018-08-18T06:11:49.578Z,19.23
2018-08-18T06:14:19.152Z,19.17
2018-08-18T06:16:48.366Z,19.20
2018-08-18T06:19:17.515Z,19.32
2018-08-18T06:21:46.645Z,19.09
2018-08-18T06:24:15.825Z,19.14
2018-08-18T06:26:44.939Z,19.30
2018-08-18T06:29:14.034Z,19.35
2018-08-18T06:31:57.231Z,19.43
2018-08-18T06:34:27.389Z,19.59
2018-08-18T06:36:56.744Z,19.75
2018-08-18T06:39:25.948Z,19.72
2018-08-18T06:41:55.144Z,19.78
2018-08-18T06:44:27.085Z,19.89
2018-08-18T06:46:56.204Z,20.02
2018-08-18T06:49:25.355Z,19.69
2018-08-18T06:51:54.538Z,19.64
2018-08-18T06:54:23.950Z,19.76
2018-08-18T06:56:52.980Z,19.77
2018-08-18T06:59:22.124Z,19.71
2018-08-18T07:01:51.344Z,19.89
2018-08-18T07:04:24.801Z,19.98
2018-08-18T07:06:53.858Z,20.00
2018-08-18T07:09:23.022Z,19.89
2018-08-18T07:11:52.144Z,19.74
2018-08-18T07:14:21.310Z,19.66
2018-08-18T07:16:50.424Z,19.68
2018-08-18T07:19:19.558Z,19.93
2018-08-18T07:21:48.730Z,20.03
2018-08-18T07:24:17.930Z,20.10
2018-08-18T07:26:47.024Z,20.32
2018-08-18T07:29:16.286Z,20.10
2018-08-18T07:31:45.490Z,20.03
2018-08-18T07:34:14.575Z,20.21
2018-08-18T07:36:43.889Z,20.52
2018-08-18T07:39:12.992Z,20.70
2018-08-18T07:41:42.170Z,20.72
2018-08-18T07:44:11.314Z,20.71
2018-08-18T07:46:40.436Z,20.53
2018-08-18T07:49:09.650Z,20.34
2018-08-18T07:51:39.719Z,20.29
2018-08-18T07:54:08.890Z,20.24
2018-08-18T07:56:38.062Z,20.39
2018-08-18T07:59:07.157Z,20.17
2018-08-18T08:01:36.359Z,20.49
2018-08-18T08:04:05.793Z,20.60
2018-08-18T08:06:34.911Z,20.67
2018-08-18T08:09:04.811Z,20.68
2018-08-18T08:11:34.008Z,20.80
2018-08-18T08:14:03.124Z,21.05
2018-08-18T08:16:32.200Z,21.38
2018-08-18T08:19:01.601Z,21.64
2018-08-18T08:21:31.679Z,21.78
2018-08-18T08:24:01.122Z,21.78
2018-08-18T08:26:30.256Z,21.83
2018-08-18T08:28:59.678Z,21.93
2018-08-18T08:31:29.070Z,21.71
2018-08-18T08:33:58.177Z,22.42
2018-08-18T08:36:27.209Z,22.52
2018-08-18T08:38:59.038Z,22.46
2018-08-18T08:41:30.120Z,22.39
2018-08-18T08:43:59.287Z,22.52
2018-08-18T08:46:28.311Z,22.40
2018-08-18T08:48:59.264Z,22.69
2018-08-18T08:51:28.386Z,22.71
2018-08-18T08:53:58.765Z,22.95
2018-08-18T08:56:45.164Z,22.96
2018-08-18T08:59:14.262Z,23.07
2018-08-18T09:01:43.306Z,23.22
2018-08-18T09:04:12.529Z,23.20
2018-08-18T09:06:45.863Z,23.20
2018-08-18T09:09:15.046Z,23.20
2018-08-18T09:11:44.130Z,23.22
2018-08-18T09:14:13.258Z,23.30
2018-08-18T09:16:42.429Z,23.35
2018-08-18T09:19:11.636Z,23.60
2018-08-18T09:21:49.824Z,23.45
2018-08-18T09:24:22.921Z,23.62
2018-08-18T09:26:52.130Z,23.86
2018-08-18T09:29:21.847Z,23.77
2018-08-18T09:31:50.898Z,23.98
2018-08-18T09:34:19.988Z,23.89
2018-08-18T09:36:49.618Z,23.75
2018-08-18T09:39:24.943Z,24.10
2018-08-18T09:41:54.088Z,24.32
2018-08-18T09:44:32.090Z,24.35
2018-08-18T09:47:01.178Z,24.25
2018-08-18T09:49:31.449Z,24.21
2018-08-18T09:52:01.402Z,24.41
2018-08-18T09:54:30.665Z,24.67
2018-08-18T09:56:59.883Z,24.68
2018-08-18T09:59:29.440Z,24.92
2018-08-18T10:01:58.596Z,24.94
2018-08-18T10:04:28.486Z,25.01
2018-08-18T10:06:57.596Z,25.21
2018-08-18T10:09:26.836Z,25.15
2018-08-18T10:11:56.061Z,25.13
2018-08-18T10:14:25.287Z,24.92
2018-08-18T10:16:54.347Z,24.94
2018-08-18T10:19:23.474Z,24.90
2018-08-18T10:21:52.915Z,24.87
2018-08-18T10:24:22.307Z,25.07
2018-08-18T10:26:56.889Z,25.26
2018-08-18T10:29:26.647Z,25.41
2018-08-18T10:31:56.970Z,25.56
2018-08-18T10:34:27.331Z,25.57
2018-08-18T10:37:00.959Z,25.30
2018-08-18T10:39:30.851Z,25.25
2018-08-18T10:42:16.834Z,25.55
2018-08-18T10:44:51.692Z,25.64
2018-08-18T10:47:22.211Z,25.69
2018-08-18T10:50:02.902Z,25.81
2018-08-18T10:52:43.702Z,25.95
2018-08-18T10:55:13.985Z,26.03
2018-08-18T10:57:54.984Z,26.05
2018-08-18T11:00:25.068Z,25.89
2018-08-18T11:02:55.430Z,25.91
2018-08-18T11:05:25.431Z,26.13
2018-08-18T11:08:04.365Z,26.25
2018-08-18T11:10:35.079Z,26.66
2018-08-18T11:13:04.361Z,26.64
2018-08-18T11:15:33.564Z,26.74
2018-08-18T11:18:02.958Z,26.49
2018-08-18T11:20:33.902Z,26.37
2018-08-18T11:23:05.074Z,26.06
2018-08-18T11:25:39.116Z,26.18
2018-08-18T11:28:09.212Z,26.56
2018-08-18T11:30:38.306Z,26.81
2018-08-18T11:33:07.711Z,26.99
2018-08-18T11:35:37.372Z,27.13
2018-08-18T11:38:09.292Z,26.73
2018-08-18T11:40:38.353Z,26.81
2018-08-18T11:43:11.479Z,27.17
2018-08-18T11:45:41.306Z,26.76
2018-08-18T11:48:17.403Z,27.07
2018-08-18T11:50:46.966Z,27.45
2018-08-18T11:53:16.206Z,27.45
2018-08-18T11:55:45.382Z,27.67
2018-08-18T11:58:16.854Z,27.81
2018-08-18T12:00:50.296Z,27.58
2018-08-18T12:03:23.267Z,27.42
2018-08-18T12:05:55.422Z,27.61
2018-08-18T12:08:27.027Z,27.66
2018-08-18T12:10:58.289Z,27.78
2018-08-18T12:13:32.421Z,27.97
2018-08-18T12:16:08.110Z,28.15
2018-08-18T12:18:38.507Z,28.10
2018-08-18T12:21:08.087Z,28.58
2018-08-18T12:23:38.677Z,28.89
2018-08-18T12:26:12.446Z,29.05
2018-08-18T12:28:47.690Z,29.15
2018-08-18T12:31:18.237Z,29.16
2018-08-18T12:33:47.342Z,29.24
2018-08-18T12:36:16.586Z,29.33
2018-08-18T12:38:48.592Z,29.31
2018-08-18T12:41:17.730Z,29.18
2018-08-18T12:43:48.492Z,29.24
2018-08-18T12:46:18.785Z,29.35
2018-08-18T12:48:49.821Z,29.52
2018-08-18T12:51:19.807Z,29.67
2018-08-18T12:53:51.360Z,29.82
2018-08-18T12:56:23.524Z,30.09
2018-08-18T12:58:52.647Z,29.95
2018-08-18T13:01:36.768Z,29.74
2018-08-18T13:04:08.029Z,29.86
2018-08-18T13:06:45.147Z,30.10
2018-08-18T13:09:15.506Z,29.85
2018-08-18T13:11:46.089Z,30.07
2018-08-18T13:14:17.395Z,30.33
2018-08-18T13:16:47.110Z,30.33
2018-08-18T13:19:18.126Z,30.31
2018-08-18T13:21:47.256Z,30.21
2018-08-18T13:24:16.593Z,30.46
2018-08-18T13:26:45.622Z,30.67
2018-08-18T13:29:14.702Z,31.03
2018-08-18T13:31:44.580Z,31.09
2018-08-18T13:34:15.787Z,31.09
2018-08-18T13:36:45.934Z,31.02
2018-08-18T13:39:17.321Z,31.28
2018-08-18T13:41:47.356Z,31.53
2018-08-18T13:44:23.154Z,31.87
2018-08-18T13:46:52.342Z,31.90
2018-08-18T13:49:23.722Z,32.02
2018-08-18T13:51:52.931Z,32.03
2018-08-18T13:54:22.115Z,32.16
2018-08-18T13:56:51.083Z,32.29
2018-08-18T13:59:52.202Z,32.31
2018-08-18T14:02:21.412Z,32.12
2018-08-18T14:04:50.505Z,31.99
2018-08-18T14:07:19.602Z,32.09
2018-08-18T14:09:52.514Z,32.35
2018-08-18T14:12:21.570Z,32.61
2018-08-18T14:14:50.677Z,32.26
2018-08-18T14:17:21.764Z,32.43
2018-08-18T14:19:51.611Z,32.51
2018-08-18T14:22:21.908Z,32.54
2018-08-18T14:24:51.052Z,32.64
2018-08-18T14:27:21.879Z,32.54
2018-08-18T14:29:51.004Z,32.24
2018-08-18T14:32:25.138Z,32.14
2018-08-18T14:34:59.446Z,32.36
2018-08-18T14:37:28.471Z,32.77
2018-08-18T14:39:57.594Z,32.76
2018-08-18T14:42:26.606Z,32.76
2018-08-18T14:44:57.546Z,32.49
2018-08-18T14:47:26.606Z,32.03
2018-08-18T14:50:12.400Z,31.66
2018-08-18T14:52:42.336Z,32.26
2018-08-18T14:55:11.436Z,32.52
2018-08-18T14:57:47.237Z,32.87
2018-08-18T15:00:16.319Z,33.10
2018-08-18T15:02:45.392Z,32.89
2018-08-18T15:05:14.499Z,32.64
2018-08-18T15:07:49.210Z,32.91
2018-08-18T15:10:32.547Z,33.12
2018-08-18T15:13:02.291Z,33.33
2018-08-18T15:15:32.354Z,33.22
2018-08-18T15:18:05.634Z,33.29
2018-08-18T15:20:35.954Z,33.56
2018-08-18T15:23:06.708Z,33.50
2018-08-18T15:25:36.592Z,33.55
2018-08-18T15:28:07.133Z,33.59
2018-08-18T15:30:37.136Z,33.63
2018-08-18T15:33:07.328Z,33.49
2018-08-18T15:35:37.810Z,33.52
2018-08-18T15:38:07.796Z,32.36
2018-08-18T15:40:36.865Z,32.78
2018-08-18T15:43:05.955Z,33.09
2018-08-18T15:46:09.922Z,33.15
2018-08-18T15:48:40.533Z,33.01
2018-08-18T15:51:09.720Z,33.30
2018-08-18T15:54:02.921Z,33.40
2018-08-18T15:56:34.354Z,33.19
2018-08-18T15:59:03.923Z,33.31
2018-08-18T16:01:34.282Z,33.12
2018-08-18T16:04:04.163Z,33.25
2018-08-18T16:06:33.425Z,33.34
2018-08-18T16:09:02.629Z,33.40
2018-08-18T16:11:31.807Z,33.26
2018-08-18T16:14:01.037Z,33.37
2018-08-18T16:16:30.185Z,33.74
2018-08-18T16:19:08.245Z,33.91
2018-08-18T16:21:37.400Z,33.47
2018-08-18T16:24:06.593Z,33.21
2018-08-18T16:26:36.072Z,33.32
2018-08-18T16:29:05.723Z,33.42
2018-08-18T16:31:34.817Z,33.51
2018-08-18T16:34:05.350Z,33.67
2018-08-18T16:36:39.648Z,33.54
2018-08-18T16:39:08.769Z,33.42
2018-08-18T16:41:37.864Z,33.31
2018-08-18T16:44:07.243Z,33.19
2018-08-18T16:46:36.357Z,33.33
2018-08-18T16:49:06.439Z,33.07
2018-08-18T16:51:35.619Z,33.34
2018-08-18T16:54:19.110Z,33.53
2018-08-18T16:56:48.233Z,33.51
2018-08-18T16:59:17.339Z,33.76
2018-08-18T17:01:46.453Z,33.11
2018-08-18T17:04:22.807Z,32.35
2018-08-18T17:06:51.923Z,32.04
2018-08-18T17:09:32.848Z,31.63
2018-08-18T17:12:20.925Z,31.54
2018-08-18T17:14:49.998Z,31.20
2018-08-18T17:17:19.164Z,30.85
2018-08-18T17:19:48.195Z,30.63
2018-08-18T17:22:17.286Z,30.58
2018-08-18T17:24:46.368Z,30.56
2018-08-18T17:27:15.515Z,30.67
2018-08-18T17:29:49.304Z,30.63
2018-08-18T17:32:18.412Z,30.42
2018-08-18T17:34:47.512Z,30.32
2018-08-18T17:37:16.612Z,30.25
2018-08-18T17:39:45.804Z,30.18
2018-08-18T17:43:02.869Z,30.26
2018-08-18T17:45:39.154Z,30.25
2018-08-18T17:48:08.420Z,30.08
2018-08-18T17:50:40.185Z,29.79
2018-08-18T17:53:09.812Z,29.80
2018-08-18T17:55:38.873Z,29.73
2018-08-18T17:58:07.992Z,29.55
2018-08-18T18:00:37.082Z,29.42
2018-08-18T18:03:08.154Z,29.46
2018-08-18T18:05:37.357Z,29.35
2018-08-18T18:08:07.487Z,29.26
2018-08-18T18:10:37.862Z,29.19
2018-08-18T18:13:16.472Z,29.23
2018-08-18T18:15:47.179Z,29.10
2018-08-18T18:18:18.332Z,28.96
2018-08-18T18:20:48.934Z,28.85
2018-08-18T18:23:18.734Z,28.90
2018-08-18T18:25:47.881Z,28.93
2018-08-18T18:28:16.998Z,29.00
2018-08-18T18:30:46.094Z,29.02
2018-08-18T18:33:15.189Z,29.10
2018-08-18T18:35:44.362Z,29.09
2018-08-18T18:38:13.831Z,29.13
2018-08-18T18:40:44.720Z,29.16
2018-08-18T18:43:13.780Z,29.11
2018-08-18T18:45:42.963Z,29.12
2018-08-18T18:48:13.514Z,28.95
2018-08-18T18:50:48.227Z,28.89
2018-08-18T18:53:17.508Z,28.82
2018-08-18T18:55:51.701Z,28.83
2018-08-18T18:58:20.960Z,28.78
2018-08-18T19:01:11.080Z,28.68
2018-08-18T19:03:40.176Z,28.59
2018-08-18T19:06:09.333Z,28.47
2018-08-18T19:08:53.760Z,28.36
2018-08-18T19:11:23.474Z,28.41
2018-08-18T19:13:52.655Z,28.37
2018-08-18T19:16:21.810Z,28.35
2018-08-18T19:18:50.906Z,28.38
2018-08-18T19:21:20.063Z,28.29
2018-08-18T19:23:49.226Z,28.09
2018-08-18T19:26:19.216Z,28.01
2018-08-18T19:28:48.412Z,28.10
2018-08-18T19:31:20.807Z,28.13
2018-08-18T19:33:50.626Z,28.01
2018-08-18T19:36:19.703Z,27.90
2018-08-18T19:38:49.423Z,27.78
2018-08-18T19:41:18.610Z,27.78
2018-08-18T19:43:47.766Z,27.09
2018-08-18T19:46:16.925Z,27.04
2018-08-18T19:48:46.263Z,27.08
2018-08-18T19:51:16.209Z,27.21
2018-08-18T19:53:45.335Z,27.27
2018-08-18T19:56:14.421Z,27.21
2018-08-18T19:58:43.977Z,27.05
2018-08-18T20:01:13.086Z,26.98
2018-08-18T20:03:42.282Z,26.76
2018-08-18T20:06:17.185Z,26.81
2018-08-18T20:08:46.341Z,27.00
2018-08-18T20:11:15.891Z,27.10
2018-08-18T20:13:45.014Z,26.81
2018-08-18T20:16:14.213Z,26.84
2018-08-18T20:18:43.710Z,26.56
2018-08-18T20:21:12.855Z,26.48
2018-08-18T20:23:42.010Z,26.44
2018-08-18T20:26:11.153Z,26.55
2018-08-18T20:28:40.299Z,26.64
2018-08-18T20:31:09.696Z,26.55
2018-08-18T20:33:38.823Z,26.45
2018-08-18T20:36:08.053Z,26.15
2018-08-18T20:38:42.306Z,25.63
2018-08-18T20:41:11.777Z,25.55
2018-08-18T20:43:42.055Z,25.90
2018-08-18T20:46:11.295Z,26.20
2018-08-18T20:48:40.210Z,26.28
2018-08-18T20:51:09.487Z,26.11
2018-08-18T20:53:38.632Z,26.09
2018-08-18T20:56:07.739Z,26.16
2018-08-18T20:58:36.855Z,26.13
2018-08-18T21:01:06.704Z,25.96
2018-08-18T21:03:46.754Z,25.80
2018-08-18T21:06:16.757Z,25.75
2018-08-18T21:08:45.946Z,25.73
2018-08-18T21:11:15.326Z,25.55
2018-08-18T21:13:47.044Z,25.50
2018-08-18T21:16:16.782Z,25.27
2018-08-18T21:18:45.898Z,25.45
2018-08-18T21:21:33.786Z,25.49
2018-08-18T21:24:02.877Z,25.40
2018-08-18T21:26:31.985Z,25.56
2018-08-18T21:29:01.081Z,25.67
2018-08-18T21:31:33.091Z,25.70
2018-08-18T21:34:03.222Z,25.54
2018-08-18T21:36:32.848Z,25.51
2018-08-18T21:39:05.007Z,25.52
2018-08-18T21:41:36.584Z,25.64
2018-08-18T21:44:06.533Z,25.57
2018-08-18T21:46:35.650Z,25.38
2018-08-18T21:49:04.746Z,25.37
2018-08-18T21:51:33.890Z,25.31
2018-08-18T21:54:03.202Z,24.30
2018-08-18T21:56:36.654Z,25.35
2018-08-18T21:59:08.309Z,25.39
2018-08-18T22:01:37.457Z,25.20
2018-08-18T22:04:06.923Z,25.07
2018-08-18T22:06:36.074Z,25.02
2018-08-18T22:09:19.713Z,25.03
2018-08-18T22:11:48.844Z,25.12
2018-08-18T22:14:18.416Z,25.14
2018-08-18T22:16:52.887Z,25.04
2018-08-18T22:19:22.290Z,25.06
2018-08-18T22:21:51.402Z,25.03
2018-08-18T22:24:20.617Z,24.84
2018-08-18T22:26:49.715Z,24.46
2018-08-18T22:29:22.445Z,24.59
2018-08-18T22:31:52.083Z,24.78
2018-08-18T22:34:21.144Z,24.70
2018-08-18T22:36:50.253Z,23.84
2018-08-18T22:39:19.293Z,24.18
2018-08-18T22:41:48.426Z,24.42
2018-08-18T22:44:17.566Z,24.56
2018-08-18T22:46:46.717Z,24.73
2018-08-18T22:49:15.750Z,24.62
2018-08-18T22:51:44.870Z,24.61
2018-08-18T22:54:13.983Z,23.96
2018-08-18T22:56:47.246Z,24.05
2018-08-18T22:59:16.405Z,24.24
2018-08-18T23:01:45.530Z,24.38
2018-08-18T23:04:28.341Z,24.63
2018-08-18T23:06:58.204Z,24.68
2018-08-18T23:09:28.198Z,24.69
2018-08-18T23:12:00.349Z,24.64
2018-08-18T23:14:33.986Z,24.72
2018-08-18T23:17:06.973Z,24.63
2018-08-18T23:19:36.089Z,24.47
2018-08-18T23:22:05.767Z,24.34
2018-08-18T23:24:38.124Z,23.98
2018-08-18T23:27:07.166Z,24.14
2018-08-18T23:29:36.676Z,24.33
2018-08-18T23:32:16.098Z,24.35
2018-08-18T23:34:45.217Z,24.53
2018-08-18T23:37:19.498Z,23.71
2018-08-18T23:39:52.494Z,22.76
2018-08-18T23:42:23.387Z,22.08
2018-08-18T23:44:52.629Z,21.68
2018-08-18T23:47:21.676Z,21.42
2018-08-18T23:49:50.906Z,21.06
2018-08-18T23:52:20.007Z,20.93
2018-08-18T23:54:49.144Z,21.05
2018-08-18T23:57:18.714Z,20.94
2018-08-18T23:59:48.336Z,20.79
